Virtual Futura



 METAR AND TAF INFORMATION
METAR FOR LEPA
ADDS - METARS form results

(1135 UTC 18 October 2019)
Data provider http://aviationweather.gov/metar/data/
 
METAR text: LEPA 181130Z 22008KT 190V250 9999 FEW025 25/18 Q1016 NOSIG
Conditions at: LEPA (PALMA DE MALLORC, ES) observed 1130 UTC 18 October 2019
Temperature: 25.0°C (77°F)
Dewpoint: 18.0°C (64°F) [RH = 65%]
Pressure (altimeter): 30.00 inches Hg (1016.0 mb)
Winds: from the SW (220 degrees) at 9 MPH (8 knots; 4.1 m/s)
Visibility: 6 or more miles (10+ km)
Ceiling: at least 12,000 feet AGL
Clouds: few clouds at 2500 feet AGL
Weather: no significant weather observed at this time

METAR text: LEPA 181100Z 23007KT 200V260 9999 FEW025 25/18 Q1017 NOSIG
Conditions at: LEPA (PALMA DE MALLORC, ES) observed 1100 UTC 18 October 2019
Temperature: 25.0°C (77°F)
Dewpoint: 18.0°C (64°F) [RH = 65%]
Pressure (altimeter): 30.03 inches Hg (1017.0 mb)
Winds: from the SW (230 degrees) at 8 MPH (7 knots; 3.6 m/s)
Visibility: 6 or more miles (10+ km)
Ceiling: at least 12,000 feet AGL
Clouds: few clouds at 2500 feet AGL
Weather: no significant weather observed at this time

Forecast for: LEPA (PALMA DE MALLORC, ES)
Text: TAF LEPA 181100Z 1812/1912 22010KT 9999 FEW025 TX26/1812Z TN17/1906Z
Forecast period: 1200 UTC 18 October 2019 to 1200 UTC 19 October 2019
Forecast type: FROM: standard forecast or significant change
Winds: from the SW (220 degrees) at 12 MPH (10 knots; 5.1 m/s)
Visibility: 6 or more miles 10+ km)
Ceiling: at least 12,000 feet AGL
Clouds: few clouds at 2500 feet AGL
Weather: no significant weather forecast for this period
Text: TEMPO 1820/1906 VRB02KT
Forecast period: 2000 UTC 18 October 2019 to 0600 UTC 19 October 2019
Forecast type: TEMPORARY: The following changes expected for less than half the time period
Winds: variable direction winds at 2 MPH (2 knots; 1.0 m/s)
Visibility: missing
Ceiling: unknown
Clouds: missing
Weather: no significant weather forecast for this period

 AIRPORT MAP

 RUNWAY INFORMATION
Runway 06L Runway length 10728 ft Runway width 148 ft
Runway elevation 15 ft Runway displaced threshold 0 ft Runway heading 59
Runway 24R Runway length 10728 ft Runway width 148 ft
Runway elevation 8 ft Runway displaced threshold 230 ft Runway heading 239
Runway 06R Runway length 9842 ft Runway width 148 ft
Runway elevation 24 ft Runway displaced threshold 1345 ft Runway heading 59
Runway 24L Runway length 9842 ft Runway width 148 ft
Runway elevation 8 ft Runway displaced threshold 0 ft Runway heading 239

 AIRPORT FREQUENCIES
Type APP Name APP Frequency 118.95 MHZ
Type ATIS Name ATIS Frequency 119.25 MHZ
Type CLD Name CLNC DEL Frequency 121.6 MHZ
Type GND Name GND Frequency 121.7 MHZ
Type OPS Name OPS Frequency 130.25 MHZ
Type TWR Name TWR Frequency 118.3 MHZ

 AIRPORT NEAR NAVIGATION AIDS

Poltica de Cookies

Esta web utiliza cookies para obtener datos estadsticos de la navegacin de sus usuarios. Si continas navegando consideramos que aceptas su uso. Ms informacin X Cerrar